Time;durP1;ratioP1;P1;durP2;ratioP2;P2;SDS_P1;SDS_P2;PMS_P1;PMS_P2;Temp;Humidity;BMP_temperature;BMP_pressure;BME280_temperature;BME280_humidity;BME280_pressure;Samples;Min_cycle;Max_cycle;Signal;HPM_P1;HPM_P2
2023/12/06 00:00:22;;;;;;;32.22;20.45;;;2.60;99.90;;;;;;5019316;28;20025;-80
2023/12/06 00:02:49;;;;;;;35.63;20.23;;;2.60;99.90;;;;;;5004252;28;20117;-79
2023/12/06 00:05:15;;;;;;;32.28;18.67;;;2.60;99.90;;;;;;5019141;28;20034;-79
2023/12/06 00:07:42;;;;;;;26.30;16.90;;;2.60;99.90;;;;;;5003528;28;20029;-81
2023/12/06 00:10:08;;;;;;;27.17;17.15;;;2.60;99.90;;;;;;5017559;28;20113;-79
2023/12/06 00:12:33;;;;;;;22.65;15.93;;;2.60;99.90;;;;;;5017681;28;20120;-80
2023/12/06 00:14:59;;;;;;;31.25;18.48;;;2.60;99.90;;;;;;5021781;28;20029;-79
2023/12/06 00:17:24;;;;;;;29.45;17.17;;;2.60;99.90;;;;;;5020039;28;20115;-79
2023/12/06 00:19:51;;;;;;;25.65;17.40;;;2.60;99.90;;;;;;5014927;28;20028;-81
2023/12/06 00:22:16;;;;;;;23.65;15.80;;;2.60;99.90;;;;;;5018062;28;20565;-79
2023/12/06 00:24:42;;;;;;;29.77;17.80;;;2.60;99.90;;;;;;5017002;28;20033;-80
2023/12/06 00:27:08;;;;;;;21.92;14.48;;;2.60;99.90;;;;;;5022030;28;20371;-79
2023/12/06 00:29:33;;;;;;;17.67;12.80;;;2.70;99.90;;;;;;5020482;28;20022;-79
2023/12/06 00:31:59;;;;;;;19.67;13.68;;;2.70;99.90;;;;;;5028500;28;20041;-79
2023/12/06 00:34:24;;;;;;;17.42;12.63;;;2.70;99.90;;;;;;5020945;28;20071;-79
2023/12/06 00:36:50;;;;;;;15.80;11.57;;;2.70;99.90;;;;;;5021447;28;20083;-80
2023/12/06 00:39:19;;;;;;;16.58;10.50;;;2.70;99.90;;;;;;5020857;28;20072;-81
2023/12/06 00:41:44;;;;;;;12.75;9.77;;;2.80;99.90;;;;;;5001461;28;20037;-79
2023/12/06 00:44:10;;;;;;;14.45;9.10;;;2.90;99.90;;;;;;5018851;28;20033;-79
2023/12/06 00:46:36;;;;;;;12.90;8.65;;;3.00;99.90;;;;;;5022646;28;20018;-79
2023/12/06 00:49:03;;;;;;;11.95;8.82;;;3.00;99.90;;;;;;5016384;28;20022;-80
2023/12/06 00:51:29;;;;;;;10.90;7.68;;;3.00;99.90;;;;;;5021166;28;20048;-78
2023/12/06 00:53:55;;;;;;;12.20;7.70;;;3.10;99.90;;;;;;5020232;28;20390;-79
2023/12/06 00:56:20;;;;;;;11.52;8.25;;;3.10;99.90;;;;;;5022749;28;20372;-79
2023/12/06 00:58:46;;;;;;;10.35;7.63;;;3.00;99.90;;;;;;5022357;28;20033;-79
2023/12/06 01:01:12;;;;;;;12.25;8.73;;;3.00;99.90;;;;;;5019426;28;20049;-79
2023/12/06 01:03:40;;;;;;;14.35;9.65;;;3.00;99.90;;;;;;5022454;28;20025;-80
2023/12/06 01:06:09;;;;;;;17.48;9.90;;;3.00;99.90;;;;;;5022360;28;20487;-80
2023/12/06 01:08:36;;;;;;;16.90;11.93;;;2.90;99.90;;;;;;5024583;28;20033;-79
2023/12/06 01:11:01;;;;;;;16.60;11.10;;;2.90;99.90;;;;;;5021713;28;20037;-79
2023/12/06 01:13:28;;;;;;;17.27;11.90;;;2.90;99.90;;;;;;5026607;28;20033;-79
2023/12/06 01:15:53;;;;;;;20.17;12.90;;;2.90;99.90;;;;;;5024640;28;20468;-79
2023/12/06 01:18:19;;;;;;;19.38;12.35;;;2.90;99.90;;;;;;5027701;28;20119;-79
2023/12/06 01:20:44;;;;;;;17.85;10.70;;;2.90;99.90;;;;;;5024039;28;20386;-79
2023/12/06 01:23:13;;;;;;;17.40;10.93;;;2.90;99.90;;;;;;5003478;28;20038;-80
2023/12/06 01:25:39;;;;;;;16.92;10.30;;;2.90;99.90;;;;;;5025581;28;20478;-79
2023/12/06 01:28:04;;;;;;;11.10;9.10;;;2.90;99.90;;;;;;5019812;28;20026;-80
2023/12/06 01:30:31;;;;;;;15.20;9.30;;;2.80;99.90;;;;;;5023607;28;20065;-80
2023/12/06 01:32:57;;;;;;;10.57;8.30;;;2.80;99.90;;;;;;5024907;28;20471;-79
2023/12/06 01:35:22;;;;;;;13.13;9.50;;;2.80;99.90;;;;;;5016536;28;20014;-79
2023/12/06 01:37:48;;;;;;;12.02;8.30;;;2.80;99.90;;;;;;5018135;28;20041;-80
2023/12/06 01:40:13;;;;;;;17.20;11.73;;;2.70;99.90;;;;;;5012224;28;20088;-79
2023/12/06 01:42:39;;;;;;;16.00;9.75;;;2.80;99.90;;;;;;4997422;28;20037;-80
2023/12/06 01:45:05;;;;;;;12.48;9.68;;;2.70;99.90;;;;;;4998740;28;20030;-80
2023/12/06 01:47:35;;;;;;;13.48;9.10;;;2.70;99.90;;;;;;4995763;28;20037;-80
2023/12/06 01:50:04;;;;;;;13.55;9.30;;;2.70;99.90;;;;;;4998012;28;20411;-81
2023/12/06 01:52:31;;;;;;;11.50;8.50;;;2.70;99.90;;;;;;5005658;28;20053;-79
2023/12/06 01:54:58;;;;;;;13.77;9.43;;;2.70;99.90;;;;;;5005732;28;20033;-79
2023/12/06 01:57:31;;;;;;;12.00;8.07;;;2.70;99.90;;;;;;4999686;28;20103;-79
2023/12/06 01:59:58;;;;;;;11.25;7.97;;;2.70;99.90;;;;;;4996713;28;20129;-79
2023/12/06 02:02:24;;;;;;;11.15;7.80;;;2.60;99.90;;;;;;5005661;28;20025;-79
2023/12/06 02:04:50;;;;;;;11.80;8.13;;;2.60;99.90;;;;;;4982996;28;20026;-79
2023/12/06 02:07:20;;;;;;;13.35;9.07;;;2.60;99.90;;;;;;5003717;28;20128;-80
2023/12/06 02:09:47;;;;;;;12.93;9.05;;;2.60;99.90;;;;;;4996107;28;20034;-81
2023/12/06 02:12:19;;;;;;;12.05;9.27;;;2.60;99.90;;;;;;5004015;28;20057;-80
2023/12/06 02:14:45;;;;;;;10.95;8.32;;;2.60;99.90;;;;;;5000438;28;20029;-79
2023/12/06 02:17:13;;;;;;;12.68;8.40;;;2.60;99.90;;;;;;4998375;28;20459;-79
2023/12/06 02:19:40;;;;;;;11.88;7.95;;;2.60;99.90;;;;;;5006111;28;20033;-80
2023/12/06 02:22:07;;;;;;;11.57;7.55;;;2.60;99.90;;;;;;5004107;28;20093;-80
2023/12/06 02:24:34;;;;;;;9.75;7.47;;;2.50;99.90;;;;;;5003527;28;20483;-79
2023/12/06 02:27:00;;;;;;;10.20;6.05;;;2.50;99.90;;;;;;4984228;28;20045;-79
2023/12/06 02:29:26;;;;;;;7.45;5.85;;;2.60;99.90;;;;;;5002480;28;20479;-79
2023/12/06 02:31:52;;;;;;;6.85;5.57;;;2.60;99.90;;;;;;5001895;28;20038;-79
2023/12/06 02:34:22;;;;;;;6.63;5.55;;;2.80;99.90;;;;;;4993604;28;20057;-80
2023/12/06 02:36:50;;;;;;;8.43;6.05;;;2.80;99.90;;;;;;4997948;28;20072;-80
2023/12/06 02:39:17;;;;;;;7.32;5.95;;;2.80;99.90;;;;;;5001423;28;20045;-80
2023/12/06 02:41:43;;;;;;;6.93;5.97;;;2.80;99.90;;;;;;5023997;28;20021;-80
2023/12/06 02:44:09;;;;;;;7.00;5.47;;;2.90;99.90;;;;;;5018058;28;20060;-80
2023/12/06 02:46:38;;;;;;;6.05;5.15;;;2.90;99.90;;;;;;5024514;28;20321;-79
2023/12/06 02:49:03;;;;;;;7.07;5.57;;;3.00;99.90;;;;;;5022899;28;20310;-79
2023/12/06 02:51:29;;;;;;;6.18;5.18;;;3.00;99.90;;;;;;5025453;28;20489;-79
2023/12/06 02:53:55;;;;;;;6.85;4.63;;;3.00;99.90;;;;;;5022165;28;20036;-78
2023/12/06 02:56:21;;;;;;;5.30;4.63;;;3.00;99.90;;;;;;5023293;28;20467;-80
2023/12/06 02:58:47;;;;;;;6.07;5.03;;;3.00;99.90;;;;;;5024570;28;20041;-79
2023/12/06 03:01:12;;;;;;;6.78;5.40;;;3.00;99.90;;;;;;5024446;28;20021;-79
2023/12/06 03:03:38;;;;;;;6.07;4.68;;;3.00;99.90;;;;;;5025019;28;20109;-79
2023/12/06 03:06:03;;;;;;;7.05;4.82;;;3.00;99.90;;;;;;5022217;28;20029;-79
2023/12/06 03:08:29;;;;;;;5.30;4.68;;;3.00;99.90;;;;;;5021695;28;20032;-78
2023/12/06 03:10:55;;;;;;;4.88;4.35;;;3.00;99.90;;;;;;5022838;28;20030;-79
2023/12/06 03:13:20;;;;;;;5.95;4.65;;;3.00;99.90;;;;;;5023594;28;20108;-80
2023/12/06 03:15:49;;;;;;;4.72;4.10;;;3.00;99.90;;;;;;5020667;28;20033;-81
2023/12/06 03:18:15;;;;;;;4.45;4.05;;;3.00;99.90;;;;;;5020280;28;20566;-79
2023/12/06 03:20:40;;;;;;;4.95;3.97;;;3.00;99.90;;;;;;5017318;28;20068;-80
2023/12/06 03:23:06;;;;;;;6.13;4.97;;;2.90;99.90;;;;;;5024729;28;20018;-80
2023/12/06 03:25:32;;;;;;;4.50;3.88;;;2.90;99.90;;;;;;5022511;28;20022;-81
2023/12/06 03:27:58;;;;;;;4.82;4.10;;;3.00;99.90;;;;;;5023066;28;20112;-79
2023/12/06 03:30:24;;;;;;;4.68;4.13;;;3.00;99.90;;;;;;5021367;28;20034;-79
2023/12/06 03:32:51;;;;;;;3.85;3.45;;;3.00;99.90;;;;;;5022976;28;20648;-79
2023/12/06 03:35:16;;;;;;;4.55;4.15;;;3.00;99.90;;;;;;5024322;28;20029;-79
2023/12/06 03:37:42;;;;;;;4.80;4.30;;;3.00;99.90;;;;;;5023452;28;20038;-79
2023/12/06 03:40:08;;;;;;;4.18;3.80;;;3.00;99.90;;;;;;5021121;28;20053;-79
2023/12/06 03:42:34;;;;;;;4.05;3.55;;;3.00;99.90;;;;;;5014032;28;20025;-78
2023/12/06 03:44:59;;;;;;;3.65;3.35;;;3.00;99.90;;;;;;5023746;28;20036;-79
2023/12/06 03:47:25;;;;;;;4.40;3.60;;;2.90;99.90;;;;;;5017069;28;20032;-80
2023/12/06 03:49:54;;;;;;;3.28;2.83;;;2.90;99.90;;;;;;5017032;28;20475;-80
2023/12/06 03:52:21;;;;;;;4.00;3.60;;;3.00;99.90;;;;;;5013146;28;20037;-79
2023/12/06 03:54:48;;;;;;;3.30;3.00;;;2.90;99.90;;;;;;5019969;28;20036;-80
2023/12/06 03:57:13;;;;;;;3.25;2.97;;;2.90;99.90;;;;;;5019678;28;20032;-79
2023/12/06 03:59:42;;;;;;;3.13;2.92;;;2.90;99.90;;;;;;5021288;28;20108;-80
2023/12/06 04:02:08;;;;;;;2.72;2.53;;;2.90;99.90;;;;;;5021565;28;20285;-79
2023/12/06 04:04:33;;;;;;;3.53;3.22;;;2.80;99.90;;;;;;5004127;28;20463;-78
2023/12/06 04:06:59;;;;;;;2.95;2.65;;;2.80;99.90;;;;;;5020490;28;20029;-78
2023/12/06 04:09:24;;;;;;;3.00;2.60;;;2.80;99.90;;;;;;5023355;28;20398;-79
2023/12/06 04:11:51;;;;;;;3.63;3.28;;;2.80;99.90;;;;;;5021442;28;20044;-79
2023/12/06 04:14:16;;;;;;;3.42;3.13;;;2.80;99.90;;;;;;5020485;28;20030;-80
2023/12/06 04:16:42;;;;;;;2.92;2.72;;;2.70;99.90;;;;;;5021269;28;20022;-79
2023/12/06 04:19:08;;;;;;;2.95;2.72;;;2.80;99.90;;;;;;5017010;28;20041;-79
2023/12/06 04:21:34;;;;;;;2.70;2.50;;;2.90;99.90;;;;;;5023268;28;20052;-79
2023/12/06 04:23:59;;;;;;;3.00;2.80;;;2.90;99.90;;;;;;5021371;28;20103;-79
2023/12/06 04:26:26;;;;;;;2.60;2.40;;;2.80;99.90;;;;;;5018121;28;20030;-79
2023/12/06 04:28:52;;;;;;;3.67;3.38;;;2.80;99.90;;;;;;5023521;28;20060;-79
2023/12/06 04:31:17;;;;;;;3.78;3.30;;;2.80;99.90;;;;;;5019763;28;20478;-79
2023/12/06 04:33:43;;;;;;;3.35;3.05;;;2.80;99.90;;;;;;5020288;28;20021;-79
2023/12/06 04:36:08;;;;;;;3.40;3.10;;;2.70;99.90;;;;;;5014986;28;20033;-80
2023/12/06 04:38:34;;;;;;;3.15;2.85;;;2.80;99.90;;;;;;5018422;28;20040;-79
2023/12/06 04:41:00;;;;;;;3.45;3.15;;;2.80;99.90;;;;;;5018898;28;20429;-79
2023/12/06 04:43:25;;;;;;;3.47;3.17;;;2.70;99.90;;;;;;5020335;28;20026;-79
2023/12/06 04:45:51;;;;;;;3.40;3.10;;;2.70;99.90;;;;;;5019693;28;20164;-79
2023/12/06 04:48:17;;;;;;;3.42;3.13;;;2.70;99.90;;;;;;5020279;28;20068;-78
2023/12/06 04:50:42;;;;;;;3.15;2.85;;;2.70;99.90;;;;;;5016417;28;20028;-79
2023/12/06 04:53:08;;;;;;;3.67;3.38;;;2.70;99.90;;;;;;5026724;28;20033;-80
2023/12/06 04:55:33;;;;;;;4.13;3.10;;;2.60;99.90;;;;;;5022532;28;20032;-79
2023/12/06 04:57:59;;;;;;;4.03;3.38;;;2.60;99.90;;;;;;5025520;28;20040;-79
2023/12/06 05:00:26;;;;;;;6.18;3.10;;;2.60;99.90;;;;;;5022099;28;20030;-79
2023/12/06 05:02:52;;;;;;;3.53;3.22;;;2.60;99.90;;;;;;5024755;28;20030;-79
2023/12/06 05:05:17;;;;;;;4.72;3.92;;;2.50;99.90;;;;;;5023288;28;20506;-79
2023/12/06 05:07:43;;;;;;;3.28;2.97;;;2.50;99.90;;;;;;5022417;28;20021;-80
2023/12/06 05:10:09;;;;;;;3.47;3.13;;;2.50;99.90;;;;;;5027085;28;20036;-79
2023/12/06 05:12:34;;;;;;;3.55;3.25;;;2.50;99.90;;;;;;5022832;28;20494;-79
2023/12/06 05:15:00;;;;;;;3.10;2.75;;;2.50;99.90;;;;;;5022407;28;20040;-79
2023/12/06 05:17:26;;;;;;;3.60;3.05;;;2.50;99.90;;;;;;5026792;28;20075;-79
2023/12/06 05:19:52;;;;;;;3.33;3.03;;;2.50;99.90;;;;;;5025828;28;20030;-79
2023/12/06 05:22:18;;;;;;;3.60;3.30;;;2.50;99.90;;;;;;5022829;28;20029;-79
2023/12/06 05:24:43;;;;;;;4.13;3.58;;;2.50;99.90;;;;;;5022754;28;20041;-79
2023/12/06 05:27:09;;;;;;;3.75;3.40;;;2.50;99.90;;;;;;5024293;28;20036;-79
2023/12/06 05:29:35;;;;;;;3.60;3.30;;;2.40;99.90;;;;;;5017983;28;20458;-79
2023/12/06 05:32:00;;;;;;;3.60;3.30;;;2.40;99.90;;;;;;5020016;28;20022;-79
2023/12/06 05:34:26;;;;;;;5.15;4.25;;;2.40;99.90;;;;;;5020939;28;20026;-80
2023/12/06 05:36:52;;;;;;;3.60;3.30;;;2.40;99.90;;;;;;5023926;28;20027;-79
2023/12/06 05:39:17;;;;;;;3.95;3.55;;;2.40;99.90;;;;;;4999863;28;20046;-79
2023/12/06 05:41:43;;;;;;;3.75;3.40;;;2.40;99.90;;;;;;4995303;28;20029;-80
2023/12/06 05:44:09;;;;;;;4.32;3.60;;;2.40;99.90;;;;;;5002793;28;20477;-78
2023/12/06 05:46:34;;;;;;;3.50;3.20;;;2.40;99.90;;;;;;4994779;28;20862;-79
2023/12/06 05:49:00;;;;;;;5.38;4.13;;;2.40;99.90;;;;;;5001474;28;20026;-78
2023/12/06 05:51:26;;;;;;;4.53;3.92;;;2.40;99.90;;;;;;5000165;28;20322;-79
2023/12/06 05:53:51;;;;;;;2.95;2.70;;;2.40;99.90;;;;;;5000315;28;20124;-79
2023/12/06 05:56:17;;;;;;;4.00;3.50;;;2.30;99.90;;;;;;4995939;28;20027;-79
2023/12/06 05:58:43;;;;;;;4.32;3.55;;;2.40;99.90;;;;;;5006678;28;20591;-79
2023/12/06 06:01:08;;;;;;;3.17;2.85;;;2.30;99.90;;;;;;5006921;28;20018;-78
2023/12/06 06:03:35;;;;;;;3.65;3.00;;;2.30;99.90;;;;;;5004014;28;20061;-79
2023/12/06 06:06:07;;;;;;;3.25;2.92;;;2.40;99.90;;;;;;5006148;28;20496;-79
2023/12/06 06:08:35;;;;;;;7.32;3.90;;;2.30;99.90;;;;;;4998476;28;20049;-79
2023/12/06 06:11:01;;;;;;;5.22;4.13;;;2.30;99.90;;;;;;4993094;28;20038;-78
2023/12/06 06:13:29;;;;;;;8.52;4.07;;;2.40;99.90;;;;;;5003101;28;20034;-78
2023/12/06 06:15:58;;;;;;;4.63;3.70;;;2.30;99.90;;;;;;5006031;28;20030;-78
2023/12/06 06:18:24;;;;;;;3.88;3.47;;;2.30;99.90;;;;;;4989389;28;20045;-79
2023/12/06 06:20:52;;;;;;;3.53;3.03;;;2.30;99.90;;;;;;5006099;28;20022;-79
2023/12/06 06:23:18;;;;;;;4.30;3.78;;;2.30;99.90;;;;;;5000772;28;20064;-79
2023/12/06 06:25:43;;;;;;;5.20;3.92;;;2.30;99.90;;;;;;4996042;28;20050;-79
2023/12/06 06:28:11;;;;;;;4.53;4.03;;;2.30;99.90;;;;;;5002330;28;20085;-81
2023/12/06 06:30:37;;;;;;;4.28;3.88;;;2.30;99.90;;;;;;4995849;28;20137;-80
2023/12/06 06:33:02;;;;;;;4.95;4.07;;;2.30;99.90;;;;;;5001959;28;20117;-78
2023/12/06 06:35:28;;;;;;;4.15;3.72;;;2.30;99.90;;;;;;4976849;28;20529;-80
2023/12/06 06:37:53;;;;;;;5.22;3.35;;;2.20;99.90;;;;;;4988420;28;20086;-78
2023/12/06 06:40:22;;;;;;;3.97;3.58;;;2.20;99.90;;;;;;5018200;28;20045;-79
2023/12/06 06:42:48;;;;;;;4.07;3.63;;;2.20;99.90;;;;;;5022971;28;20028;-79
2023/12/06 06:45:13;;;;;;;4.40;3.90;;;2.20;99.90;;;;;;5019026;28;20033;-79
2023/12/06 06:47:39;;;;;;;4.10;3.70;;;2.20;99.90;;;;;;5022612;28;20033;-79
2023/12/06 06:50:05;;;;;;;4.15;3.55;;;2.20;99.90;;;;;;5019223;28;20062;-80
2023/12/06 06:52:34;;;;;;;3.63;3.28;;;2.10;99.90;;;;;;5009483;28;20032;-80
2023/12/06 06:55:03;;;;;;;4.20;3.80;;;2.10;99.90;;;;;;5024692;28;20044;-78
2023/12/06 06:57:29;;;;;;;3.72;3.35;;;2.20;99.90;;;;;;5025284;28;20080;-79
2023/12/06 06:59:54;;;;;;;3.97;3.55;;;2.10;99.90;;;;;;5015484;28;20413;-79
2023/12/06 07:02:20;;;;;;;3.60;3.30;;;2.10;99.90;;;;;;5025540;28;20044;-79
2023/12/06 07:04:46;;;;;;;3.60;3.20;;;2.10;99.90;;;;;;5023826;28;20383;-79
2023/12/06 07:07:12;;;;;;;4.07;3.28;;;2.10;99.90;;;;;;5025703;28;20030;-78
2023/12/06 07:09:38;;;;;;;3.33;3.00;;;2.10;99.90;;;;;;4999770;28;20502;-79
2023/12/06 07:12:03;;;;;;;5.30;3.72;;;2.10;99.90;;;;;;5020436;28;20104;-79
2023/12/06 07:14:29;;;;;;;3.72;3.40;;;2.10;99.90;;;;;;5022384;28;20033;-78
2023/12/06 07:16:56;;;;;;;4.72;3.60;;;2.10;99.90;;;;;;5020425;28;20025;-79
2023/12/06 07:19:22;;;;;;;3.20;2.90;;;2.10;99.90;;;;;;5024833;28;20064;-79
2023/12/06 07:21:48;;;;;;;3.08;2.78;;;2.10;99.90;;;;;;5021572;28;20479;-79
2023/12/06 07:24:13;;;;;;;4.47;3.47;;;2.10;99.90;;;;;;5018557;28;20056;-79
2023/12/06 07:26:45;;;;;;;5.80;2.95;;;2.10;99.90;;;;;;5026468;28;20117;-79
2023/12/06 07:29:13;;;;;;;4.85;3.28;;;2.10;99.90;;;;;;5023793;28;20080;-81
2023/12/06 07:31:42;;;;;;;4.03;3.05;;;2.10;99.90;;;;;;5015935;28;20026;-79
2023/12/06 07:34:10;;;;;;;2.92;2.60;;;2.10;99.90;;;;;;5016713;28;20087;-79
2023/12/06 07:36:36;;;;;;;3.42;3.13;;;2.10;99.90;;;;;;5023125;28;20083;-79
2023/12/06 07:39:01;;;;;;;5.32;3.72;;;2.10;99.90;;;;;;5022136;28;20606;-79
2023/12/06 07:41:27;;;;;;;5.50;4.03;;;2.20;99.90;;;;;;5023305;28;20025;-81
2023/12/06 07:43:53;;;;;;;4.22;3.50;;;2.10;99.90;;;;;;5014761;28;20482;-78
2023/12/06 07:46:18;;;;;;;6.68;3.90;;;2.10;99.90;;;;;;5011731;28;20033;-79
2023/12/06 07:48:44;;;;;;;4.80;3.95;;;2.10;99.90;;;;;;5021852;28;20386;-78
2023/12/06 07:51:10;;;;;;;5.43;4.25;;;2.10;99.90;;;;;;5025033;28;20497;-78
2023/12/06 07:53:35;;;;;;;5.75;4.68;;;2.10;99.90;;;;;;5017939;28;20030;-79
2023/12/06 07:56:04;;;;;;;4.05;3.47;;;2.10;99.90;;;;;;5013430;28;20561;-80
2023/12/06 07:58:30;;;;;;;4.38;3.50;;;2.10;99.90;;;;;;5011090;28;20052;-79
2023/12/06 08:00:57;;;;;;;5.22;4.05;;;2.20;99.90;;;;;;5013275;28;20025;-78
2023/12/06 08:03:26;;;;;;;5.43;4.38;;;2.20;99.90;;;;;;5018055;28;20022;-79
2023/12/06 08:05:52;;;;;;;4.90;3.78;;;2.20;99.90;;;;;;5019506;28;20395;-81
2023/12/06 08:08:18;;;;;;;5.43;4.22;;;2.20;99.90;;;;;;5028584;28;20041;-79
2023/12/06 08:10:44;;;;;;;7.47;4.68;;;2.20;99.90;;;;;;5020050;28;20408;-78
2023/12/06 08:13:09;;;;;;;5.28;4.03;;;2.20;99.90;;;;;;5020230;28;20467;-78
2023/12/06 08:15:35;;;;;;;9.10;5.38;;;2.30;99.90;;;;;;5012295;28;20175;-79
2023/12/06 08:18:01;;;;;;;6.45;4.50;;;2.20;99.90;;;;;;5018567;28;20045;-78
2023/12/06 08:20:26;;;;;;;5.78;4.97;;;2.30;99.90;;;;;;5013140;28;20044;-78
2023/12/06 08:22:52;;;;;;;8.15;4.80;;;2.30;99.90;;;;;;5015949;28;20317;-79
2023/12/06 08:25:18;;;;;;;9.15;5.20;;;2.30;99.90;;;;;;5010808;28;20033;-79
2023/12/06 08:27:44;;;;;;;8.95;6.03;;;2.30;99.90;;;;;;5020005;28;20394;-78
2023/12/06 08:30:10;;;;;;;11.02;6.80;;;2.30;99.90;;;;;;5020164;28;20033;-78
2023/12/06 08:35:57;;;;;;;13.43;8.93;;;2.30;99.90;;;;;;5033218;28;20029;-78
2023/12/06 08:45:38;;;;;;;15.65;9.52;;;2.30;99.90;;;;;;5033240;28;20525;-78
2023/12/06 08:51:25;;;;;;;12.10;8.65;;;2.40;99.90;;;;;;5013358;28;20033;-78
2023/12/06 08:57:13;;;;;;;21.02;12.40;;;2.40;99.90;;;;;;5013351;28;20029;-78
2023/12/06 09:03:01;;;;;;;31.65;17.75;;;2.50;99.90;;;;;;5032962;28;20549;-78
2023/12/06 09:08:49;;;;;;;23.92;15.38;;;2.50;99.90;;;;;;5013169;28;20402;-78
2023/12/06 09:14:37;;;;;;;25.27;15.00;;;2.60;99.90;;;;;;5032888;28;20163;-78
2023/12/06 09:20:24;;;;;;;22.77;14.07;;;2.60;99.90;;;;;;5032746;28;20564;-78
2023/12/06 09:26:12;;;;;;;25.67;16.80;;;2.60;99.90;;;;;;5013049;28;20044;-78
2023/12/06 09:32:00;;;;;;;21.67;14.10;;;2.60;99.90;;;;;;5017014;28;20092;-78
2023/12/06 09:34:25;;;;;;;26.33;16.30;;;2.70;99.90;;;;;;5009409;28;20033;-78
2023/12/06 09:36:51;;;;;;;25.27;15.90;;;2.70;99.90;;;;;;5024246;28;20025;-79
2023/12/06 09:39:20;;;;;;;24.25;15.93;;;2.70;99.90;;;;;;5018525;28;20729;-78
2023/12/06 09:41:46;;;;;;;24.77;16.23;;;2.70;99.90;;;;;;5016936;28;20041;-78
2023/12/06 09:44:15;;;;;;;27.52;17.15;;;2.70;99.90;;;;;;5019702;28;20044;-81
2023/12/06 09:46:43;;;;;;;24.58;16.02;;;2.70;99.90;;;;;;5022255;28;20029;-81
2023/12/06 09:49:09;;;;;;;26.23;15.85;;;2.70;99.90;;;;;;5019511;28;20120;-79
2023/12/06 09:51:34;;;;;;;24.45;16.77;;;2.70;99.90;;;;;;5008920;28;20052;-78
2023/12/06 09:54:00;;;;;;;23.20;15.75;;;2.70;99.90;;;;;;5025756;28;20037;-78
2023/12/06 09:56:27;;;;;;;24.80;15.88;;;2.70;99.90;;;;;;5025943;28;20442;-80
2023/12/06 09:58:53;;;;;;;25.83;15.88;;;2.70;99.90;;;;;;5017656;28;20045;-79
2023/12/06 10:01:18;;;;;;;26.17;15.73;;;2.70;99.90;;;;;;5020722;28;20473;-79
2023/12/06 10:03:46;;;;;;;23.80;15.75;;;2.70;99.90;;;;;;5018046;28;20422;-79
2023/12/06 10:06:12;;;;;;;21.67;14.90;;;2.70;99.90;;;;;;5022291;28;20061;-79
2023/12/06 10:08:37;;;;;;;18.88;12.95;;;2.70;99.90;;;;;;5022264;28;20558;-79
2023/12/06 10:11:05;;;;;;;21.42;13.15;;;2.80;99.90;;;;;;5025170;28;20029;-79
2023/12/06 10:13:33;;;;;;;21.48;12.98;;;2.80;99.90;;;;;;5026262;28;20479;-79
2023/12/06 10:16:00;;;;;;;16.75;11.43;;;2.70;99.90;;;;;;5024758;28;20394;-78
2023/12/06 10:18:27;;;;;;;17.13;11.95;;;2.70;99.90;;;;;;5025869;28;20033;-78
2023/12/06 10:20:53;;;;;;;16.58;10.50;;;2.70;99.90;;;;;;5009810;28;20041;-79
2023/12/06 10:23:19;;;;;;;16.42;12.02;;;2.60;99.90;;;;;;5015188;28;20022;-79
2023/12/06 10:25:49;;;;;;;14.23;9.85;;;2.70;99.90;;;;;;4994965;28;20489;-79
2023/12/06 10:28:17;;;;;;;17.77;12.32;;;2.60;99.90;;;;;;4997731;28;20041;-78
2023/12/06 10:30:43;;;;;;;19.33;11.75;;;2.60;99.90;;;;;;5025145;28;20033;-79
2023/12/06 10:33:10;;;;;;;15.68;10.70;;;2.60;99.90;;;;;;5005834;28;20517;-79
2023/12/06 10:35:36;;;;;;;14.88;9.70;;;2.60;99.90;;;;;;5023115;28;20386;-79
2023/12/06 10:38:03;;;;;;;16.20;10.60;;;2.60;99.90;;;;;;5025483;28;20044;-81
2023/12/06 10:40:29;;;;;;;12.75;9.38;;;2.50;99.90;;;;;;5022194;28;20030;-78
2023/12/06 10:43:04;;;;;;;15.93;10.57;;;2.50;99.90;;;;;;4999742;28;21590;-78
2023/12/06 10:45:33;;;;;;;12.98;9.52;;;2.60;99.90;;;;;;5001927;28;20026;-79
2023/12/06 10:47:59;;;;;;;17.30;10.50;;;2.50;99.90;;;;;;5001333;28;20120;-78
2023/12/06 10:50:25;;;;;;;14.70;10.38;;;2.50;99.90;;;;;;4982308;28;20200;-79
2023/12/06 10:52:53;;;;;;;11.98;9.38;;;2.50;99.90;;;;;;5002608;28;20046;-79
2023/12/06 10:55:20;;;;;;;12.25;8.65;;;2.50;99.90;;;;;;5000249;28;20100;-79
2023/12/06 10:57:48;;;;;;;12.32;9.30;;;2.50;99.90;;;;;;4984156;28;20396;-78
2023/12/06 11:00:15;;;;;;;10.35;7.65;;;2.40;99.90;;;;;;4998167;28;20025;-79
2023/12/06 11:02:41;;;;;;;9.10;7.60;;;2.40;99.90;;;;;;5000418;28;20037;-80
2023/12/06 11:05:09;;;;;;;12.80;9.02;;;2.40;99.90;;;;;;5009244;28;20038;-80
2023/12/06 11:07:56;;;;;;;10.02;7.57;;;2.40;99.90;;;;;;4998166;28;20030;-78
2023/12/06 11:10:33;;;;;;;10.05;6.60;;;2.40;99.90;;;;;;5000742;28;20048;-78
2023/12/06 11:13:14;;;;;;;10.13;7.60;;;2.40;99.90;;;;;;5010051;28;20407;-78
2023/12/06 11:16:15;;;;;;;8.15;6.72;;;2.40;99.90;;;;;;5004389;28;20487;-79
2023/12/06 11:18:50;;;;;;;9.23;6.93;;;2.40;99.90;;;;;;5002615;28;20038;-80
2023/12/06 11:21:19;;;;;;;10.15;8.18;;;2.40;99.90;;;;;;4993670;28;20449;-78
2023/12/06 11:23:46;;;;;;;10.63;7.90;;;2.40;99.90;;;;;;5000148;28;20118;-78
2023/12/06 11:26:15;;;;;;;14.35;9.40;;;2.50;99.90;;;;;;5002116;28;20030;-80
2023/12/06 11:28:43;;;;;;;12.40;8.57;;;2.50;99.90;;;;;;4997227;28;20052;-80
2023/12/06 11:31:12;;;;;;;10.75;8.40;;;2.40;99.90;;;;;;4999025;28;20040;-79
2023/12/06 11:33:38;;;;;;;9.75;7.35;;;2.50;99.90;;;;;;4974346;28;20092;-79
2023/12/06 11:36:04;;;;;;;10.18;7.38;;;2.40;99.90;;;;;;5000178;28;20117;-78
2023/12/06 11:38:37;;;;;;;11.88;8.70;;;2.40;99.90;;;;;;5006349;28;20079;-78
2023/12/06 11:41:06;;;;;;;10.15;7.93;;;2.40;99.90;;;;;;5007690;28;20363;-78
2023/12/06 11:43:34;;;;;;;13.60;9.65;;;2.40;99.90;;;;;;5022755;28;20494;-77
2023/12/06 11:46:10;;;;;;;16.52;9.55;;;2.40;99.90;;;;;;5003822;28;20029;-78
2023/12/06 11:48:46;;;;;;;10.73;8.82;;;2.40;99.90;;;;;;5022700;28;20189;-78
2023/12/06 11:51:21;;;;;;;10.40;8.43;;;2.40;99.90;;;;;;5022941;28;20483;-78
2023/12/06 11:53:48;;;;;;;11.32;8.35;;;2.40;99.90;;;;;;5001982;28;20034;-78
2023/12/06 11:56:20;;;;;;;9.85;7.80;;;2.40;99.90;;;;;;5025015;28;20026;-79
2023/12/06 11:58:48;;;;;;;11.95;7.88;;;2.40;99.90;;;;;;5021638;28;20029;-78
2023/12/06 12:01:14;;;;;;;9.77;7.80;;;2.40;99.90;;;;;;5022260;28;20061;-79
2023/12/06 12:03:44;;;;;;;12.57;8.55;;;2.40;99.90;;;;;;5018441;28;20057;-81
2023/12/06 12:06:11;;;;;;;10.98;8.23;;;2.40;99.90;;;;;;5018796;28;20025;-77
2023/12/06 12:08:39;;;;;;;9.95;7.70;;;2.40;99.90;;;;;;5023996;28;20367;-78
2023/12/06 12:11:07;;;;;;;8.90;7.20;;;2.40;99.90;;;;;;5023498;28;20466;-78
2023/12/06 12:13:37;;;;;;;11.13;7.78;;;2.40;99.90;;;;;;5003576;28;20036;-80
2023/12/06 12:16:03;;;;;;;9.98;7.80;;;2.40;99.90;;;;;;5020037;28;20021;-80
2023/12/06 12:18:29;;;;;;;15.20;8.88;;;2.40;99.90;;;;;;5014727;28;20061;-78
2023/12/06 12:20:56;;;;;;;11.23;8.43;;;2.40;99.90;;;;;;5002369;28;20044;-78
2023/12/06 12:23:22;;;;;;;10.73;7.90;;;2.40;99.90;;;;;;5024359;28;20394;-78
2023/12/06 12:25:49;;;;;;;8.95;7.57;;;2.40;99.90;;;;;;5021427;28;20083;-78
2023/12/06 12:28:23;;;;;;;12.63;9.85;;;2.30;99.90;;;;;;5024349;28;20026;-78
2023/12/06 12:30:55;;;;;;;15.00;10.80;;;2.30;99.90;;;;;;5022020;28;20033;-78
2023/12/06 12:33:22;;;;;;;14.48;10.30;;;2.30;99.90;;;;;;5002226;28;20041;-78
2023/12/06 12:35:48;;;;;;;13.07;9.63;;;2.30;99.90;;;;;;5020067;28;20053;-78
2023/12/06 12:38:15;;;;;;;9.25;7.47;;;2.30;99.90;;;;;;5004210;28;20072;-78
2023/12/06 12:40:41;;;;;;;10.45;7.72;;;2.30;99.90;;;;;;5016659;28;20025;-79
2023/12/06 12:43:10;;;;;;;10.82;8.20;;;2.30;99.90;;;;;;5000092;28;20388;-78
2023/12/06 12:45:36;;;;;;;11.57;8.57;;;2.30;99.90;;;;;;5021156;28;20036;-79
2023/12/06 12:48:03;;;;;;;9.68;8.27;;;2.30;99.90;;;;;;5020379;28;20394;-78
2023/12/06 12:50:30;;;;;;;12.63;9.23;;;2.30;99.90;;;;;;5002470;28;20029;-78
2023/12/06 12:53:00;;;;;;;10.77;8.40;;;2.30;99.90;;;;;;5021675;28;20438;-81
2023/12/06 12:55:29;;;;;;;11.48;8.77;;;2.30;99.90;;;;;;5021446;28;20387;-81
2023/12/06 12:57:57;;;;;;;15.95;9.63;;;2.30;99.90;;;;;;5022198;28;20086;-78
2023/12/06 13:00:30;;;;;;;12.50;9.45;;;2.30;99.90;;;;;;5021606;28;20033;-78
2023/12/06 13:02:57;;;;;;;11.18;8.85;;;2.30;99.90;;;;;;5021607;28;20067;-78
2023/12/06 13:05:25;;;;;;;12.10;9.25;;;2.30;99.90;;;;;;5025180;28;20743;-80
2023/12/06 13:07:53;;;;;;;13.05;9.18;;;2.30;99.90;;;;;;5022037;28;20048;-81
2023/12/06 13:10:19;;;;;;;10.85;8.80;;;2.30;99.90;;;;;;5026009;28;20071;-79
2023/12/06 13:12:45;;;;;;;11.60;8.77;;;2.30;99.90;;;;;;5023496;28;20451;-78
2023/12/06 13:15:11;;;;;;;13.57;9.68;;;2.30;99.90;;;;;;5022716;28;20025;-78
2023/12/06 13:17:37;;;;;;;16.27;10.57;;;2.30;99.90;;;;;;5025406;28;20061;-78
2023/12/06 13:20:06;;;;;;;17.02;11.05;;;2.30;99.90;;;;;;5023974;28;20025;-79
2023/12/06 13:22:33;;;;;;;13.00;10.02;;;2.30;99.90;;;;;;5023846;28;20044;-79
2023/12/06 13:24:59;;;;;;;11.25;8.63;;;2.30;99.90;;;;;;5027289;28;20033;-78